sensor_id;sensor_type;location;lat;lon;timestamp;pressure;altitude;pressure_sealevel;temperature;humidity
40940;BME280;26666;50.156;7.700;2022-10-28T00:02:06;101038.84;;;13.62;100.00
40940;BME280;26666;50.156;7.700;2022-10-28T00:07:07;101042.78;;;13.77;100.00
40940;BME280;26666;50.156;7.700;2022-10-28T00:12:09;101041.97;;;13.77;100.00
40940;BME280;26666;50.156;7.700;2022-10-28T00:17:10;101035.56;;;13.79;100.00
40940;BME280;26666;50.156;7.700;2022-10-28T00:22:12;101024.59;;;13.63;100.00
40940;BME280;26666;50.156;7.700;2022-10-28T00:27:13;101028.00;;;13.85;100.00
40940;BME280;26666;50.156;7.700;2022-10-28T00:32:15;101037.38;;;13.89;100.00
40940;BME280;26666;50.156;7.700;2022-10-28T00:37:16;101032.91;;;13.89;100.00
40940;BME280;26666;50.156;7.700;2022-10-28T00:42:20;101029.00;;;13.93;100.00
40940;BME280;26666;50.156;7.700;2022-10-28T00:47:48;101021.19;;;13.92;100.00
40940;BME280;26666;50.156;7.700;2022-10-28T00:52:58;101019.81;;;14.17;100.00
40940;BME280;26666;50.156;7.700;2022-10-28T00:58:01;101011.16;;;14.15;100.00
40940;BME280;26666;50.156;7.700;2022-10-28T01:03:04;101012.00;;;14.45;100.00
40940;BME280;26666;50.156;7.700;2022-10-28T01:08:05;101013.81;;;14.54;100.00
40940;BME280;26666;50.156;7.700;2022-10-28T01:13:19;101011.44;;;14.70;100.00
40940;BME280;26666;50.156;7.700;2022-10-28T01:18:33;101004.56;;;14.77;100.00
40940;BME280;26666;50.156;7.700;2022-10-28T01:24:03;100997.16;;;14.81;100.00
40940;BME280;26666;50.156;7.700;2022-10-28T01:29:22;100991.25;;;14.87;100.00
40940;BME280;26666;50.156;7.700;2022-10-28T01:34:33;100981.56;;;14.86;100.00
40940;BME280;26666;50.156;7.700;2022-10-28T01:45:15;100973.03;;;14.92;100.00
40940;BME280;26666;50.156;7.700;2022-10-28T01:50:23;100969.53;;;14.92;100.00
40940;BME280;26666;50.156;7.700;2022-10-28T01:55:30;100959.19;;;14.89;100.00
40940;BME280;26666;50.156;7.700;2022-10-28T02:00:35;100947.41;;;14.91;100.00
40940;BME280;26666;50.156;7.700;2022-10-28T02:05:45;100949.13;;;14.83;100.00
40940;BME280;26666;50.156;7.700;2022-10-28T02:11:01;100938.88;;;14.88;100.00
40940;BME280;26666;50.156;7.700;2022-10-28T02:16:31;100940.00;;;14.85;100.00
40940;BME280;26666;50.156;7.700;2022-10-28T02:26:46;100920.13;;;14.79;100.00
40940;BME280;26666;50.156;7.700;2022-10-28T02:31:55;100909.22;;;14.83;100.00
40940;BME280;26666;50.156;7.700;2022-10-28T02:37:01;100906.25;;;14.86;100.00
40940;BME280;26666;50.156;7.700;2022-10-28T02:42:14;100907.50;;;14.91;100.00
40940;BME280;26666;50.156;7.700;2022-10-28T02:47:22;100908.22;;;14.84;100.00
40940;BME280;26666;50.156;7.700;2022-10-28T02:52:27;100907.50;;;14.91;100.00
40940;BME280;26666;50.156;7.700;2022-10-28T02:57:34;100908.78;;;14.87;100.00
40940;BME280;26666;50.156;7.700;2022-10-28T03:02:39;100901.22;;;14.92;100.00
40940;BME280;26666;50.156;7.700;2022-10-28T03:07:40;100911.09;;;15.00;100.00
40940;BME280;26666;50.156;7.700;2022-10-28T03:12:42;100902.13;;;15.01;100.00
40940;BME280;26666;50.156;7.700;2022-10-28T03:17:43;100911.53;;;14.95;100.00
40940;BME280;26666;50.156;7.700;2022-10-28T03:22:44;100920.16;;;15.07;100.00
40940;BME280;26666;50.156;7.700;2022-10-28T03:27:46;100926.03;;;15.11;100.00
40940;BME280;26666;50.156;7.700;2022-10-28T03:32:47;100929.66;;;15.10;100.00
40940;BME280;26666;50.156;7.700;2022-10-28T03:37:49;100928.84;;;15.09;100.00
40940;BME280;26666;50.156;7.700;2022-10-28T03:42:50;100933.44;;;15.17;100.00
40940;BME280;26666;50.156;7.700;2022-10-28T03:47:53;100934.84;;;15.11;100.00
40940;BME280;26666;50.156;7.700;2022-10-28T03:52:55;100925.63;;;15.06;100.00
40940;BME280;26666;50.156;7.700;2022-10-28T03:57:59;100929.25;;;15.14;100.00
40940;BME280;26666;50.156;7.700;2022-10-28T04:03:01;100930.00;;;15.07;100.00
40940;BME280;26666;50.156;7.700;2022-10-28T04:08:03;100929.44;;;15.03;100.00
40940;BME280;26666;50.156;7.700;2022-10-28T04:13:05;100925.13;;;15.02;100.00
40940;BME280;26666;50.156;7.700;2022-10-28T04:18:07;100920.31;;;15.06;100.00
40940;BME280;26666;50.156;7.700;2022-10-28T04:23:13;100912.03;;;15.09;100.00
40940;BME280;26666;50.156;7.700;2022-10-28T04:28:15;100909.28;;;15.01;100.00
40940;BME280;26666;50.156;7.700;2022-10-28T04:33:17;100908.19;;;14.93;100.00
40940;BME280;26666;50.156;7.700;2022-10-28T04:38:18;100899.06;;;14.96;100.00
40940;BME280;26666;50.156;7.700;2022-10-28T04:43:20;100899.47;;;15.01;100.00
40940;BME280;26666;50.156;7.700;2022-10-28T04:48:21;100898.69;;;14.91;100.00
40940;BME280;26666;50.156;7.700;2022-10-28T04:53:23;100887.50;;;14.87;100.00
40940;BME280;26666;50.156;7.700;2022-10-28T04:58:25;100897.59;;;14.84;100.00
40940;BME280;26666;50.156;7.700;2022-10-28T05:03:26;100895.03;;;14.92;100.00
40940;BME280;26666;50.156;7.700;2022-10-28T05:08:28;100884.09;;;14.95;100.00
40940;BME280;26666;50.156;7.700;2022-10-28T05:13:29;100887.03;;;14.92;100.00
40940;BME280;26666;50.156;7.700;2022-10-28T05:18:31;100875.97;;;14.96;100.00
40940;BME280;26666;50.156;7.700;2022-10-28T05:23:32;100884.09;;;14.95;100.00
40940;BME280;26666;50.156;7.700;2022-10-28T05:28:34;100875.13;;;14.96;100.00
40940;BME280;26666;50.156;7.700;2022-10-28T05:33:36;100875.13;;;14.96;100.00
40940;BME280;26666;50.156;7.700;2022-10-28T05:38:37;100883.09;;;14.96;100.00
40940;BME280;26666;50.156;7.700;2022-10-28T05:43:39;100887.25;;;15.08;100.00
40940;BME280;26666;50.156;7.700;2022-10-28T05:48:40;100892.28;;;15.11;100.00
40940;BME280;26666;50.156;7.700;2022-10-28T05:53:42;100896.22;;;15.07;100.00
40940;BME280;26666;50.156;7.700;2022-10-28T05:58:46;100892.41;;;15.10;100.00
40940;BME280;26666;50.156;7.700;2022-10-28T06:03:47;100936.81;;;15.09;100.00
40940;BME280;26666;50.156;7.700;2022-10-28T06:08:49;100935.00;;;15.10;100.00
40940;BME280;26666;50.156;7.700;2022-10-28T06:13:50;100941.88;;;15.12;100.00
40940;BME280;26666;50.156;7.700;2022-10-28T06:18:52;100931.50;;;15.09;100.00
40940;BME280;26666;50.156;7.700;2022-10-28T06:23:53;100936.09;;;15.17;100.00
40940;BME280;26666;50.156;7.700;2022-10-28T06:28:54;100934.56;;;15.14;100.00
40940;BME280;26666;50.156;7.700;2022-10-28T06:33:56;100930.09;;;15.15;100.00
40940;BME280;26666;50.156;7.700;2022-10-28T06:38:58;100948.03;;;15.13;100.00
40940;BME280;26666;50.156;7.700;2022-10-28T06:43:59;100946.88;;;15.15;100.00
40940;BME280;26666;50.156;7.700;2022-10-28T06:49:01;100942.84;;;15.11;100.00
40940;BME280;26666;50.156;7.700;2022-10-28T06:54:02;100944.22;;;15.15;100.00
40940;BME280;26666;50.156;7.700;2022-10-28T06:59:04;100947.63;;;15.08;100.00
40940;BME280;26666;50.156;7.700;2022-10-28T07:04:09;100948.25;;;15.19;100.00
40940;BME280;26666;50.156;7.700;2022-10-28T07:09:24;100964.13;;;15.11;100.00
40940;BME280;26666;50.156;7.700;2022-10-28T07:14:26;100961.97;;;15.25;100.00
40940;BME280;26666;50.156;7.700;2022-10-28T07:19:27;100962.44;;;15.20;100.00
40940;BME280;26666;50.156;7.700;2022-10-28T07:24:29;100970.84;;;15.15;100.00
40940;BME280;26666;50.156;7.700;2022-10-28T07:29:30;100973.63;;;15.24;100.00
40940;BME280;26666;50.156;7.700;2022-10-28T07:34:32;100986.38;;;15.20;100.00
40940;BME280;26666;50.156;7.700;2022-10-28T07:39:33;100979.94;;;15.23;100.00
40940;BME280;26666;50.156;7.700;2022-10-28T07:44:35;100984.66;;;15.29;100.00
40940;BME280;26666;50.156;7.700;2022-10-28T07:49:36;100975.75;;;15.20;100.00
40940;BME280;26666;50.156;7.700;2022-10-28T07:54:37;100983.69;;;15.30;100.00
40940;BME280;26666;50.156;7.700;2022-10-28T07:59:39;100990.53;;;15.32;100.00
40940;BME280;26666;50.156;7.700;2022-10-28T08:04:40;100982.81;;;15.39;100.00
40940;BME280;26666;50.156;7.700;2022-10-28T08:09:42;100986.72;;;15.35;100.00
40940;BME280;26666;50.156;7.700;2022-10-28T08:14:43;100983.78;;;15.38;100.00
40940;BME280;26666;50.156;7.700;2022-10-28T08:19:45;100981.06;;;15.48;100.00
40940;BME280;26666;50.156;7.700;2022-10-28T08:24:46;100981.03;;;15.57;100.00
40940;BME280;26666;50.156;7.700;2022-10-28T08:29:49;100994.19;;;15.59;100.00
40940;BME280;26666;50.156;7.700;2022-10-28T08:34:50;100995.19;;;15.58;100.00
40940;BME280;26666;50.156;7.700;2022-10-28T08:39:52;100995.44;;;15.65;100.00
40940;BME280;26666;50.156;7.700;2022-10-28T08:50:23;100999.94;;;16.28;100.00
40940;BME280;26666;50.156;7.700;2022-10-28T08:55:35;100977.91;;;16.44;100.00
40940;BME280;26666;50.156;7.700;2022-10-28T09:00:39;100968.31;;;16.51;100.00
40940;BME280;26666;50.156;7.700;2022-10-28T09:05:45;100964.97;;;16.49;100.00
40940;BME280;26666;50.156;7.700;2022-10-28T09:21:35;100960.97;;;16.53;100.00
40940;BME280;26666;50.156;7.700;2022-10-28T09:37:31;100965.59;;;17.21;100.00
40940;BME280;26666;50.156;7.700;2022-10-28T09:42:40;100967.31;;;17.30;100.00
40940;BME280;26666;50.156;7.700;2022-10-28T09:47:45;100967.25;;;16.88;100.00
40940;BME280;26666;50.156;7.700;2022-10-28T09:53:00;100961.56;;;17.17;100.00
40940;BME280;26666;50.156;7.700;2022-10-28T09:58:07;100965.00;;;17.01;100.00
40940;BME280;26666;50.156;7.700;2022-10-28T10:03:14;100969.06;;;17.13;100.00
40940;BME280;26666;50.156;7.700;2022-10-28T10:08:18;100969.63;;;17.25;100.00
40940;BME280;26666;50.156;7.700;2022-10-28T10:13:27;100959.44;;;17.63;100.00
40940;BME280;26666;50.156;7.700;2022-10-28T10:18:30;100955.00;;;17.88;100.00
40940;BME280;26666;50.156;7.700;2022-10-28T10:23:34;100943.25;;;17.73;100.00
40940;BME280;26666;50.156;7.700;2022-10-28T10:28:43;100940.13;;;17.86;100.00
40940;BME280;26666;50.156;7.700;2022-10-28T10:33:48;100935.78;;;17.93;100.00
40940;BME280;26666;50.156;7.700;2022-10-28T10:38:53;100929.72;;;17.74;100.00
40940;BME280;26666;50.156;7.700;2022-10-28T10:43:55;100935.25;;;17.81;100.00
40940;BME280;26666;50.156;7.700;2022-10-28T10:49:12;100922.09;;;17.96;100.00
40940;BME280;26666;50.156;7.700;2022-10-28T10:54:14;100925.53;;;17.72;100.00
40940;BME280;26666;50.156;7.700;2022-10-28T10:59:30;100922.25;;;17.86;100.00
40940;BME280;26666;50.156;7.700;2022-10-28T11:04:31;100905.25;;;17.45;100.00
40940;BME280;26666;50.156;7.700;2022-10-28T11:09:38;100909.63;;;17.46;100.00
40940;BME280;26666;50.156;7.700;2022-10-28T11:14:55;100897.22;;;18.04;100.00
40940;BME280;26666;50.156;7.700;2022-10-28T11:19:59;100905.16;;;17.79;100.00
40940;BME280;26666;50.156;7.700;2022-10-28T11:30:56;100895.81;;;17.83;100.00
40940;BME280;26666;50.156;7.700;2022-10-28T11:41:17;100888.84;;;17.90;100.00
40940;BME280;26666;50.156;7.700;2022-10-28T12:14:22;100849.06;;;18.12;100.00
40940;BME280;26666;50.156;7.700;2022-10-28T12:19:37;100845.72;;;18.10;100.00
40940;BME280;26666;50.156;7.700;2022-10-28T12:24:45;100843.41;;;17.90;100.00
40940;BME280;26666;50.156;7.700;2022-10-28T12:29:54;100852.09;;;17.92;100.00
40940;BME280;26666;50.156;7.700;2022-10-28T12:35:17;100850.72;;;18.05;100.00
40940;BME280;26666;50.156;7.700;2022-10-28T12:40:25;100847.19;;;17.80;100.00
40940;BME280;26666;50.156;7.700;2022-10-28T12:45:30;100849.91;;;18.04;100.00
40940;BME280;26666;50.156;7.700;2022-10-28T12:50:49;100844.22;;;17.99;100.00
40940;BME280;26666;50.156;7.700;2022-10-28T12:55:57;100840.69;;;18.07;100.00
40940;BME280;26666;50.156;7.700;2022-10-28T13:01:06;100838.16;;;17.72;100.00
40940;BME280;26666;50.156;7.700;2022-10-28T13:23:04;100820.66;;;17.95;100.00
40940;BME280;26666;50.156;7.700;2022-10-28T13:28:14;100831.19;;;17.88;100.00
40940;BME280;26666;50.156;7.700;2022-10-28T13:33:22;100826.19;;;17.85;100.00
40940;BME280;26666;50.156;7.700;2022-10-28T13:38:25;100828.16;;;17.83;100.00
40940;BME280;26666;50.156;7.700;2022-10-28T13:48:48;100835.88;;;17.86;100.00
40940;BME280;26666;50.156;7.700;2022-10-28T13:53:56;100840.66;;;17.82;100.00
40940;BME280;26666;50.156;7.700;2022-10-28T13:59:02;100835.53;;;17.97;100.00
40940;BME280;26666;50.156;7.700;2022-10-28T14:04:22;100828.69;;;17.86;100.00
40940;BME280;26666;50.156;7.700;2022-10-28T14:09:28;100840.38;;;17.85;100.00
40940;BME280;26666;50.156;7.700;2022-10-28T14:14:31;100840.22;;;18.11;100.00
40940;BME280;26666;50.156;7.700;2022-10-28T14:19:33;100852.75;;;17.86;100.00
40940;BME280;26666;50.156;7.700;2022-10-28T14:24:39;100854.72;;;18.17;100.00
40940;BME280;26666;50.156;7.700;2022-10-28T14:29:48;100860.13;;;17.84;100.00
40940;BME280;26666;50.156;7.700;2022-10-28T14:34:50;100855.56;;;17.77;100.00
40940;BME280;26666;50.156;7.700;2022-10-28T14:40:15;100866.22;;;17.52;100.00
40940;BME280;26666;50.156;7.700;2022-10-28T14:45:43;100870.97;;;17.24;100.00
40940;BME280;26666;50.156;7.700;2022-10-28T14:50:53;100883.69;;;17.30;100.00
40940;BME280;26666;50.156;7.700;2022-10-28T14:56:04;100879.03;;;17.40;100.00
40940;BME280;26666;50.156;7.700;2022-10-28T15:06:33;100873.22;;;17.02;100.00
40940;BME280;26666;50.156;7.700;2022-10-28T15:11:35;100865.22;;;17.02;100.00
40940;BME280;26666;50.156;7.700;2022-10-28T15:16:45;100867.53;;;16.89;100.00
40940;BME280;26666;50.156;7.700;2022-10-28T15:22:04;100867.44;;;17.07;100.00
40940;BME280;26666;50.156;7.700;2022-10-28T15:27:10;100867.47;;;17.31;100.00
40940;BME280;26666;50.156;7.700;2022-10-28T15:37:33;100870.97;;;16.81;100.00
40940;BME280;26666;50.156;7.700;2022-10-28T15:42:37;100882.91;;;16.77;100.00
40940;BME280;26666;50.156;7.700;2022-10-28T15:47:43;100882.84;;;16.61;100.00
40940;BME280;26666;50.156;7.700;2022-10-28T15:52:49;100886.81;;;16.56;100.00
40940;BME280;26666;50.156;7.700;2022-10-28T15:57:54;100899.63;;;16.53;100.00
40940;BME280;26666;50.156;7.700;2022-10-28T16:03:01;100889.44;;;16.48;100.00
40940;BME280;26666;50.156;7.700;2022-10-28T16:08:06;100889.59;;;16.47;100.00
40940;BME280;26666;50.156;7.700;2022-10-28T16:13:19;100885.75;;;16.49;100.00
40940;BME280;26666;50.156;7.700;2022-10-28T16:18:23;100890.56;;;16.46;100.00
40940;BME280;26666;50.156;7.700;2022-10-28T16:23:32;100911.22;;;16.44;100.00
40940;BME280;26666;50.156;7.700;2022-10-28T16:28:34;100918.94;;;16.47;100.00
40940;BME280;26666;50.156;7.700;2022-10-28T16:33:37;100918.09;;;16.46;100.00
40940;BME280;26666;50.156;7.700;2022-10-28T16:38:39;100929.06;;;16.43;100.00
40940;BME280;26666;50.156;7.700;2022-10-28T16:43:40;100938.22;;;16.41;100.00
40940;BME280;26666;50.156;7.700;2022-10-28T16:48:42;100945.91;;;16.44;100.00
40940;BME280;26666;50.156;7.700;2022-10-28T16:53:44;100953.06;;;16.43;100.00
40940;BME280;26666;50.156;7.700;2022-10-28T16:58:45;100959.22;;;16.44;100.00
40940;BME280;26666;50.156;7.700;2022-10-28T17:03:46;100955.88;;;16.42;100.00
40940;BME280;26666;50.156;7.700;2022-10-28T17:08:48;100967.84;;;16.38;100.00
40940;BME280;26666;50.156;7.700;2022-10-28T17:14:03;100966.50;;;16.33;100.00
40940;BME280;26666;50.156;7.700;2022-10-28T17:19:05;100972.31;;;16.29;100.00
40940;BME280;26666;50.156;7.700;2022-10-28T17:24:06;100971.63;;;16.27;100.00
40940;BME280;26666;50.156;7.700;2022-10-28T17:29:08;100975.41;;;16.24;100.00
40940;BME280;26666;50.156;7.700;2022-10-28T17:34:10;100991.72;;;16.21;100.00
40940;BME280;26666;50.156;7.700;2022-10-28T17:39:11;100986.00;;;16.16;100.00
40940;BME280;26666;50.156;7.700;2022-10-28T17:44:20;100988.97;;;16.13;100.00
40940;BME280;26666;50.156;7.700;2022-10-28T17:49:21;100992.25;;;16.07;100.00
40940;BME280;26666;50.156;7.700;2022-10-28T17:54:23;100993.69;;;16.01;100.00
40940;BME280;26666;50.156;7.700;2022-10-28T17:59:24;100996.53;;;16.00;100.00
40940;BME280;26666;50.156;7.700;2022-10-28T18:04:26;100998.78;;;15.94;100.00
40940;BME280;26666;50.156;7.700;2022-10-28T18:09:27;100996.03;;;15.86;100.00
40940;BME280;26666;50.156;7.700;2022-10-28T18:14:29;101008.00;;;15.82;100.00
40940;BME280;26666;50.156;7.700;2022-10-28T18:19:30;101003.41;;;15.74;100.00
40940;BME280;26666;50.156;7.700;2022-10-28T18:24:32;100997.06;;;15.75;100.00
40940;BME280;26666;50.156;7.700;2022-10-28T18:29:33;101003.41;;;15.74;100.00
40940;BME280;26666;50.156;7.700;2022-10-28T18:34:34;100998.78;;;15.67;100.00
40940;BME280;26666;50.156;7.700;2022-10-28T18:39:36;101008.91;;;15.63;100.00
40940;BME280;26666;50.156;7.700;2022-10-28T18:44:38;101012.84;;;15.59;100.00
40940;BME280;26666;50.156;7.700;2022-10-28T18:49:39;101011.47;;;15.55;100.00
40940;BME280;26666;50.156;7.700;2022-10-28T18:54:40;101017.91;;;15.52;100.00
40940;BME280;26666;50.156;7.700;2022-10-28T18:59:42;101020.06;;;15.49;100.00
40940;BME280;26666;50.156;7.700;2022-10-28T19:05:04;101030.44;;;15.42;100.00
40940;BME280;26666;50.156;7.700;2022-10-28T19:10:06;101029.88;;;15.38;100.00
40940;BME280;26666;50.156;7.700;2022-10-28T19:15:07;101031.31;;;15.33;100.00
40940;BME280;26666;50.156;7.700;2022-10-28T19:20:09;101035.25;;;15.29;100.00
40940;BME280;26666;50.156;7.700;2022-10-28T19:25:10;101029.38;;;15.25;100.00
40940;BME280;26666;50.156;7.700;2022-10-28T19:30:14;101029.53;;;15.24;100.00
40940;BME280;26666;50.156;7.700;2022-10-28T19:35:16;101031.88;;;15.27;100.00
40940;BME280;26666;50.156;7.700;2022-10-28T19:40:18;101037.25;;;15.17;100.00
40940;BME280;26666;50.156;7.700;2022-10-28T19:45:19;101032.06;;;15.15;100.00
40940;BME280;26666;50.156;7.700;2022-10-28T19:50:21;101045.94;;;15.19;100.00
40940;BME280;26666;50.156;7.700;2022-10-28T19:55:22;101049.41;;;15.19;100.00
40940;BME280;26666;50.156;7.700;2022-10-28T20:00:24;101055.31;;;15.13;100.00
40940;BME280;26666;50.156;7.700;2022-10-28T20:05:25;101057.19;;;15.03;100.00
40940;BME280;26666;50.156;7.700;2022-10-28T20:10:26;101066.69;;;15.06;100.00
40940;BME280;26666;50.156;7.700;2022-10-28T20:15:28;101066.69;;;14.96;100.00
40940;BME280;26666;50.156;7.700;2022-10-28T20:20:30;101066.69;;;14.96;100.00
40940;BME280;26666;50.156;7.700;2022-10-28T20:25:31;101079.03;;;14.97;100.00
40940;BME280;26666;50.156;7.700;2022-10-28T20:30:33;101070.34;;;14.95;100.00
40940;BME280;26666;50.156;7.700;2022-10-28T20:35:34;101081.97;;;14.94;100.00
40940;BME280;26666;50.156;7.700;2022-10-28T20:40:36;101098.22;;;15.01;100.00
40940;BME280;26666;50.156;7.700;2022-10-28T20:45:37;101094.31;;;14.95;100.00
40940;BME280;26666;50.156;7.700;2022-10-28T20:50:47;101105.94;;;14.84;100.00
40940;BME280;26666;50.156;7.700;2022-10-28T20:55:50;101096.97;;;14.75;100.00
40940;BME280;26666;50.156;7.700;2022-10-28T21:00:52;101105.66;;;14.77;100.00
40940;BME280;26666;50.156;7.700;2022-10-28T21:05:54;101116.31;;;14.68;100.00
40940;BME280;26666;50.156;7.700;2022-10-28T21:10:55;101105.38;;;14.71;100.00
40940;BME280;26666;50.156;7.700;2022-10-28T21:16:05;101098.94;;;14.73;100.00
40940;BME280;26666;50.156;7.700;2022-10-28T21:21:07;101100.59;;;14.65;100.00
40940;BME280;26666;50.156;7.700;2022-10-28T21:26:09;101109.84;;;14.61;100.00
40940;BME280;26666;50.156;7.700;2022-10-28T21:31:13;101123.16;;;14.61;100.00
40940;BME280;26666;50.156;7.700;2022-10-28T21:36:17;101124.41;;;14.56;100.00
40940;BME280;26666;50.156;7.700;2022-10-28T21:41:19;101119.09;;;14.56;100.00
40940;BME280;26666;50.156;7.700;2022-10-28T21:46:21;101110.09;;;14.48;100.00
40940;BME280;26666;50.156;7.700;2022-10-28T21:51:23;101112.06;;;14.46;100.00
40940;BME280;26666;50.156;7.700;2022-10-28T21:56:25;101112.06;;;14.46;100.00
40940;BME280;26666;50.156;7.700;2022-10-28T22:01:26;101106.75;;;14.46;100.00
40940;BME280;26666;50.156;7.700;2022-10-28T22:06:28;101101.94;;;14.39;100.00
40940;BME280;26666;50.156;7.700;2022-10-28T22:11:29;101110.63;;;14.42;100.00
40940;BME280;26666;50.156;7.700;2022-10-28T22:16:33;101103.63;;;14.31;100.00
40940;BME280;26666;50.156;7.700;2022-10-28T22:21:36;101100.16;;;14.40;100.00
40940;BME280;26666;50.156;7.700;2022-10-28T22:26:37;101096.06;;;14.26;100.00
40940;BME280;26666;50.156;7.700;2022-10-28T22:31:39;101091.44;;;14.18;100.00
40940;BME280;26666;50.156;7.700;2022-10-28T22:36:40;101090.91;;;14.25;100.00
40940;BME280;26666;50.156;7.700;2022-10-28T22:41:42;101094.94;;;14.19;100.00
40940;BME280;26666;50.156;7.700;2022-10-28T22:46:43;101094.50;;;14.14;100.00
40940;BME280;26666;50.156;7.700;2022-10-28T22:51:45;101096.19;;;14.15;100.00
40940;BME280;26666;50.156;7.700;2022-10-28T22:56:46;101093.09;;;14.19;100.00
40940;BME280;26666;50.156;7.700;2022-10-28T23:01:48;101097.16;;;14.24;100.00
40940;BME280;26666;50.156;7.700;2022-10-28T23:06:49;101096.06;;;14.26;100.00
40940;BME280;26666;50.156;7.700;2022-10-28T23:11:51;101103.19;;;14.26;100.00
40940;BME280;26666;50.156;7.700;2022-10-28T23:16:52;101114.50;;;14.18;100.00
40940;BME280;26666;50.156;7.700;2022-10-28T23:21:54;101116.91;;;14.21;100.00
40940;BME280;26666;50.156;7.700;2022-10-28T23:26:55;101124.56;;;14.14;100.00
40940;BME280;26666;50.156;7.700;2022-10-28T23:31:58;101121.88;;;14.05;100.00
40940;BME280;26666;50.156;7.700;2022-10-28T23:36:59;101120.09;;;14.05;100.00
40940;BME280;26666;50.156;7.700;2022-10-28T23:42:01;101121.03;;;14.04;100.00
40940;BME280;26666;50.156;7.700;2022-10-28T23:47:02;101122.00;;;13.93;100.00
40940;BME280;26666;50.156;7.700;2022-10-28T23:52:04;101121.03;;;14.04;100.00
40940;BME280;26666;50.156;7.700;2022-10-28T23:57:05;101122.84;;;13.94;100.00
